createdAt,value
2019-04-28T00:02:12.353Z,96.20
2019-04-28T00:04:41.585Z,96.30
2019-04-28T00:07:11.935Z,96.30
2019-04-28T00:09:41.481Z,96.30
2019-04-28T00:12:11.486Z,96.40
2019-04-28T00:14:41.777Z,96.30
2019-04-28T00:17:11.203Z,96.40
2019-04-28T00:19:40.906Z,96.40
2019-04-28T00:22:11.638Z,96.30
2019-04-28T00:24:48.112Z,96.30
2019-04-28T00:27:17.026Z,96.40
2019-04-28T00:29:46.371Z,96.30
2019-04-28T00:32:15.395Z,96.30
2019-04-28T00:34:44.313Z,96.40
2019-04-28T00:37:17.711Z,96.30
2019-04-28T00:39:46.601Z,96.30
2019-04-28T00:42:15.492Z,96.30
2019-04-28T00:44:44.355Z,96.30
2019-04-28T00:47:13.276Z,96.10
2019-04-28T00:49:48.208Z,96.00
2019-04-28T00:52:19.067Z,96.00
2019-04-28T00:54:48.633Z,95.90
2019-04-28T00:57:18.034Z,95.90
2019-04-28T00:59:55.202Z,95.80
2019-04-28T01:02:37.138Z,95.80
2019-04-28T01:05:08.582Z,95.80
2019-04-28T01:07:37.684Z,95.70
2019-04-28T01:10:07.388Z,95.60
2019-04-28T01:12:36.287Z,95.60
2019-04-28T01:15:10.253Z,95.60
2019-04-28T01:17:40.623Z,95.60
2019-04-28T01:20:14.019Z,95.50
2019-04-28T01:22:42.911Z,95.60
2019-04-28T01:25:11.803Z,95.60
2019-04-28T01:27:43.468Z,95.50
2019-04-28T01:30:15.231Z,95.50
2019-04-28T01:32:51.686Z,95.50
2019-04-28T01:35:21.107Z,95.50
2019-04-28T01:37:50.579Z,95.50
2019-04-28T01:40:20.540Z,95.40
2019-04-28T01:42:50.055Z,95.50
2019-04-28T01:45:20.596Z,95.50
2019-04-28T01:47:50.428Z,95.60
2019-04-28T01:50:20.447Z,95.70
2019-04-28T01:52:51.415Z,95.70
2019-04-28T01:55:20.205Z,95.60
2019-04-28T01:57:49.810Z,95.60
2019-04-28T02:00:24.972Z,95.60
2019-04-28T02:02:50.643Z,95.70
2019-04-28T02:05:19.821Z,95.70
2019-04-28T02:07:50.538Z,95.70
2019-04-28T02:10:20.200Z,95.80
2019-04-28T02:12:50.398Z,96.10
2019-04-28T02:15:20.181Z,95.90
2019-04-28T02:17:49.990Z,95.90
2019-04-28T02:20:21.201Z,96.00
2019-04-28T02:22:51.729Z,96.00
2019-04-28T02:25:21.390Z,96.00
2019-04-28T02:27:50.433Z,96.00
2019-04-28T02:30:22.647Z,96.00
2019-04-28T02:32:51.877Z,96.00
2019-04-28T02:35:21.392Z,96.00
2019-04-28T02:37:50.665Z,96.10
2019-04-28T02:40:20.737Z,96.10
2019-04-28T02:42:52.174Z,96.10
2019-04-28T02:45:21.941Z,96.10
2019-04-28T02:47:53.584Z,96.10
2019-04-28T02:50:24.074Z,96.10
2019-04-28T02:52:57.778Z,96.10
2019-04-28T02:55:26.669Z,96.10
2019-04-28T02:57:55.559Z,96.10
2019-04-28T03:00:24.451Z,96.10
2019-04-28T03:02:53.342Z,96.10
2019-04-28T03:05:22.309Z,96.10
2019-04-28T03:07:51.790Z,96.20
2019-04-28T03:10:21.614Z,96.20
2019-04-28T03:12:51.878Z,96.20
2019-04-28T03:15:21.075Z,96.20
2019-04-28T03:17:52.779Z,96.20
2019-04-28T03:20:20.926Z,96.20
2019-04-28T03:22:51.194Z,96.50
2019-04-28T03:25:21.862Z,96.20
2019-04-28T03:28:04.167Z,96.20
2019-04-28T03:30:46.678Z,96.20
2019-04-28T03:33:19.078Z,96.20
2019-04-28T03:35:47.740Z,96.20
2019-04-28T03:38:16.628Z,96.20
2019-04-28T03:40:46.500Z,96.20
2019-04-28T03:43:15.435Z,96.30
2019-04-28T03:45:54.978Z,96.30
2019-04-28T03:48:23.871Z,96.30
2019-04-28T03:50:52.768Z,96.40
2019-04-28T03:53:21.648Z,96.40
2019-04-28T03:55:51.266Z,96.50
2019-04-28T03:58:23.702Z,96.50
2019-04-28T04:00:51.089Z,96.50
2019-04-28T04:03:20.960Z,96.50
2019-04-28T04:05:51.047Z,96.60
2019-04-28T04:08:20.829Z,96.70
2019-04-28T04:11:10.605Z,96.60
2019-04-28T04:13:46.059Z,96.70
2019-04-28T04:16:30.798Z,96.70
2019-04-28T04:19:03.276Z,96.70
2019-04-28T04:21:32.189Z,96.80
2019-04-28T04:24:01.293Z,96.80
2019-04-28T04:26:32.915Z,96.80
2019-04-28T04:29:01.157Z,96.80
2019-04-28T04:31:31.703Z,96.90
2019-04-28T04:34:03.071Z,96.90
2019-04-28T04:36:31.410Z,97.00
2019-04-28T04:39:01.882Z,97.00
2019-04-28T04:41:31.100Z,97.10
2019-04-28T04:44:01.116Z,97.10
2019-04-28T04:46:31.446Z,97.10
2019-04-28T04:49:00.879Z,97.10
2019-04-28T04:51:30.781Z,97.10
2019-04-28T04:54:01.079Z,97.10
2019-04-28T04:56:30.511Z,97.10
2019-04-28T04:59:02.240Z,97.30
2019-04-28T05:01:50.104Z,97.30
2019-04-28T05:04:26.141Z,97.30
2019-04-28T05:06:55.032Z,97.30
2019-04-28T05:09:23.923Z,97.40
2019-04-28T05:11:52.814Z,97.40
2019-04-28T05:14:21.687Z,97.50
2019-04-28T05:16:50.596Z,97.50
2019-04-28T05:19:20.592Z,97.50
2019-04-28T05:21:49.853Z,97.60
2019-04-28T05:24:20.752Z,97.60
2019-04-28T05:26:51.634Z,97.70
2019-04-28T05:29:26.573Z,97.60
2019-04-28T05:31:54.811Z,97.70
2019-04-28T05:34:24.138Z,97.70
2019-04-28T05:36:52.274Z,97.70
2019-04-28T05:39:21.165Z,97.80
2019-04-28T05:41:50.530Z,97.80
2019-04-28T05:44:20.262Z,97.80
2019-04-28T05:46:50.580Z,97.80
2019-04-28T05:49:21.446Z,97.90
2019-04-28T05:51:51.969Z,97.90
2019-04-28T05:54:25.359Z,98.00
2019-04-28T05:56:59.718Z,98.00
2019-04-28T05:59:36.767Z,98.00
2019-04-28T06:02:07.296Z,98.00
2019-04-28T06:04:36.187Z,98.00
2019-04-28T06:07:10.076Z,98.00
2019-04-28T06:09:41.856Z,98.00
2019-04-28T06:12:12.385Z,98.00
2019-04-28T06:14:41.276Z,98.00
2019-04-28T06:17:10.863Z,98.00
2019-04-28T06:19:40.374Z,98.00
2019-04-28T06:22:09.382Z,98.00
2019-04-28T06:24:38.274Z,98.00
2019-04-28T06:27:07.165Z,98.10
2019-04-28T06:29:36.364Z,98.10
2019-04-28T06:32:05.435Z,98.00
2019-04-28T06:34:34.352Z,98.00
2019-04-28T06:37:03.241Z,98.00
2019-04-28T06:39:32.239Z,98.00
2019-04-28T06:42:01.127Z,98.40
2019-04-28T06:44:30.021Z,98.00
2019-04-28T06:46:58.883Z,98.10
2019-04-28T06:49:27.800Z,98.00
2019-04-28T06:51:56.691Z,98.00
2019-04-28T06:54:25.584Z,98.00
2019-04-28T06:56:54.474Z,98.00
2019-04-28T06:59:23.364Z,97.90
2019-04-28T07:01:52.264Z,97.90
2019-04-28T07:04:21.250Z,97.80
2019-04-28T07:06:50.139Z,97.80
2019-04-28T07:09:19.101Z,98.00
2019-04-28T07:11:48.126Z,97.60
2019-04-28T07:14:17.022Z,97.60
2019-04-28T07:16:45.908Z,97.60
2019-04-28T07:19:14.801Z,97.50
2019-04-28T07:21:45.335Z,97.40
2019-04-28T07:24:15.215Z,97.30
2019-04-28T07:26:44.603Z,97.20
2019-04-28T07:29:15.279Z,97.20
2019-04-28T07:31:44.421Z,97.10
2019-04-28T07:34:15.476Z,97.00
2019-04-28T07:37:12.776Z,97.00
2019-04-28T07:39:42.607Z,96.90
2019-04-28T07:42:12.250Z,96.70
2019-04-28T07:44:41.248Z,96.60
2019-04-28T07:47:10.399Z,96.40
2019-04-28T07:49:39.564Z,96.20
2019-04-28T07:52:10.243Z,96.00
2019-04-28T07:54:42.275Z,96.00
2019-04-28T07:57:11.550Z,95.80
2019-04-28T07:59:40.755Z,95.70
2019-04-28T08:02:09.935Z,95.60
2019-04-28T08:04:39.134Z,95.40
2019-04-28T08:07:09.444Z,95.10
2019-04-28T08:09:38.371Z,94.70
2019-04-28T08:12:07.744Z,94.50
2019-04-28T08:14:36.758Z,94.00
2019-04-28T08:17:05.598Z,93.70
2019-04-28T08:19:49.657Z,93.80
2019-04-28T08:22:18.523Z,93.50
2019-04-28T08:24:47.387Z,93.40
2019-04-28T08:27:16.207Z,93.30
2019-04-28T08:29:57.741Z,93.20
2019-04-28T08:32:26.182Z,92.80
2019-04-28T08:34:55.056Z,92.60
2019-04-28T08:37:23.927Z,92.40
2019-04-28T08:39:52.751Z,92.00
2019-04-28T08:42:21.608Z,91.50
2019-04-28T08:44:50.471Z,91.20
2019-04-28T08:47:19.303Z,90.60
2019-04-28T08:49:48.496Z,90.50
2019-04-28T08:52:19.340Z,90.40
2019-04-28T08:54:47.985Z,90.20
2019-04-28T08:57:17.033Z,90.20
2019-04-28T08:59:58.162Z,89.90
2019-04-28T09:02:27.421Z,88.00
2019-04-28T09:04:56.509Z,86.70
2019-04-28T09:07:25.603Z,85.70
2019-04-28T09:09:54.869Z,85.90
2019-04-28T09:12:25.180Z,85.40
2019-04-28T09:14:54.203Z,84.50
2019-04-28T09:17:23.372Z,83.20
2019-04-28T09:19:52.603Z,81.90
2019-04-28T09:22:21.500Z,80.90
2019-04-28T09:24:50.363Z,79.80
2019-04-28T09:27:19.239Z,78.70
2019-04-28T09:29:48.066Z,77.90
2019-04-28T09:32:16.936Z,77.50
2019-04-28T09:34:45.766Z,77.30
2019-04-28T09:37:14.595Z,76.70
2019-04-28T09:39:53.543Z,76.50
2019-04-28T09:42:33.043Z,76.80
2019-04-28T09:45:04.309Z,76.80
2019-04-28T09:47:33.140Z,76.40
2019-04-28T09:50:01.969Z,76.90
2019-04-28T09:52:30.839Z,76.80
2019-04-28T09:54:59.702Z,76.60
2019-04-28T09:57:28.535Z,76.00
2019-04-28T09:59:57.400Z,74.70
2019-04-28T10:02:26.267Z,73.60
2019-04-28T10:04:55.095Z,73.10
2019-04-28T10:07:23.963Z,72.20
2019-04-28T10:09:52.844Z,71.60
2019-04-28T10:12:27.320Z,71.00
2019-04-28T10:14:52.195Z,70.80
2019-04-28T10:17:21.064Z,70.60
2019-04-28T10:20:01.975Z,70.20
2019-04-28T10:22:30.848Z,71.20
2019-04-28T10:25:02.788Z,70.80
2019-04-28T10:27:31.655Z,71.30
2019-04-28T10:30:00.523Z,71.50
2019-04-28T10:32:29.352Z,71.50
2019-04-28T10:34:58.224Z,71.10
2019-04-28T10:37:27.096Z,70.50
2019-04-28T10:39:57.495Z,70.90
2019-04-28T10:42:26.363Z,71.50
2019-04-28T10:44:55.333Z,71.20
2019-04-28T10:47:24.268Z,71.00
2019-04-28T10:49:53.239Z,71.40
2019-04-28T10:52:22.313Z,71.20
2019-04-28T10:54:51.095Z,71.20
2019-04-28T10:57:19.966Z,71.20
2019-04-28T10:59:48.827Z,71.80
2019-04-28T11:02:17.672Z,71.60
2019-04-28T11:05:07.345Z,71.30
2019-04-28T11:07:24.852Z,70.40
2019-04-28T11:10:01.055Z,70.50
2019-04-28T11:12:30.723Z,70.40
2019-04-28T11:14:59.549Z,70.00
2019-04-28T11:17:28.419Z,69.90
2019-04-28T11:19:57.306Z,69.50
2019-04-28T11:22:26.131Z,69.40
2019-04-28T11:24:54.996Z,69.60
2019-04-28T11:27:24.565Z,69.00
2019-04-28T11:29:53.391Z,68.70
2019-04-28T11:32:22.263Z,68.30
2019-04-28T11:34:52.695Z,68.10
2019-04-28T11:37:21.624Z,67.90
2019-04-28T11:39:50.499Z,68.10
2019-04-28T11:42:19.471Z,68.50
2019-04-28T11:44:48.499Z,68.70
2019-04-28T11:47:19.211Z,68.50
2019-04-28T11:49:48.292Z,68.60
2019-04-28T11:52:17.564Z,68.60
2019-04-28T11:54:46.779Z,68.40
2019-04-28T11:57:15.987Z,67.90
2019-04-28T11:59:45.059Z,67.30
2019-04-28T12:02:14.233Z,67.10
2019-04-28T12:04:43.467Z,66.90
2019-04-28T12:07:12.745Z,66.80
2019-04-28T12:09:43.427Z,66.50
2019-04-28T12:12:26.163Z,65.40
2019-04-28T12:15:13.079Z,64.70
2019-04-28T12:17:43.775Z,63.90
2019-04-28T12:20:14.912Z,63.70
2019-04-28T12:22:44.019Z,63.40
2019-04-28T12:25:13.132Z,63.10
2019-04-28T12:27:42.178Z,62.30
2019-04-28T12:30:12.056Z,62.20
2019-04-28T12:32:43.065Z,62.40
2019-04-28T12:35:18.240Z,62.30
2019-04-28T12:37:46.058Z,62.40
2019-04-28T12:40:15.447Z,61.40
2019-04-28T12:42:44.438Z,61.40
2019-04-28T12:45:13.580Z,60.60
2019-04-28T12:47:54.722Z,60.60
2019-04-28T12:50:25.152Z,59.70
2019-04-28T12:52:53.975Z,59.50
2019-04-28T12:55:22.847Z,58.70
2019-04-28T12:57:51.714Z,57.80
2019-04-28T13:00:22.215Z,57.50
2019-04-28T13:03:09.187Z,57.10
2019-04-28T13:05:42.900Z,56.20
2019-04-28T13:08:11.840Z,54.80
2019-04-28T13:10:40.771Z,54.40
2019-04-28T13:13:09.610Z,54.40
2019-04-28T13:15:38.483Z,54.20
2019-04-28T13:18:07.431Z,54.40
2019-04-28T13:20:36.505Z,54.80
2019-04-28T13:23:05.334Z,54.60
2019-04-28T13:25:34.248Z,54.70
2019-04-28T13:28:03.052Z,53.60
2019-04-28T13:30:31.919Z,53.60
2019-04-28T13:33:00.845Z,53.40
2019-04-28T13:35:29.736Z,53.70
2019-04-28T13:37:58.627Z,53.40
2019-04-28T13:40:29.157Z,53.80
2019-04-28T13:43:46.791Z,54.10
2019-04-28T13:46:15.681Z,55.80
2019-04-28T13:48:44.675Z,56.00
2019-04-28T13:51:13.606Z,56.10
2019-04-28T13:53:42.562Z,56.50
2019-04-28T13:56:11.451Z,56.50
2019-04-28T13:58:40.772Z,56.60
2019-04-28T14:01:11.282Z,56.70
2019-04-28T14:03:44.478Z,56.90
2019-04-28T14:06:27.261Z,56.40
2019-04-28T14:08:45.408Z,55.90
2019-04-28T14:11:14.444Z,55.30
2019-04-28T14:13:43.365Z,55.30
2019-04-28T14:16:12.366Z,55.10
2019-04-28T14:18:41.303Z,55.40
2019-04-28T14:21:10.296Z,55.70
2019-04-28T14:23:39.187Z,55.60
2019-04-28T14:26:08.151Z,55.50
2019-04-28T14:28:37.114Z,56.00
2019-04-28T14:31:06.167Z,56.60
2019-04-28T14:33:35.061Z,56.50
2019-04-28T14:36:03.952Z,56.30
2019-04-28T14:38:32.876Z,55.90
2019-04-28T14:41:01.835Z,55.90
2019-04-28T14:43:30.748Z,56.20
2019-04-28T14:45:59.719Z,56.50
2019-04-28T14:48:28.611Z,57.20
2019-04-28T14:50:59.627Z,57.20
2019-04-28T14:53:29.052Z,57.10
2019-04-28T14:55:58.336Z,56.90
2019-04-28T14:58:27.555Z,57.00
2019-04-28T15:00:58.035Z,57.20
2019-04-28T15:03:28.511Z,57.70
2019-04-28T15:06:08.361Z,57.50
2019-04-28T15:08:44.624Z,57.50
2019-04-28T15:11:27.135Z,57.60
2019-04-28T15:13:56.066Z,57.70
2019-04-28T15:16:25.050Z,57.60
2019-04-28T15:18:54.093Z,57.80
2019-04-28T15:21:23.187Z,57.80
2019-04-28T15:23:52.184Z,58.20
2019-04-28T15:26:21.097Z,58.70
2019-04-28T15:28:49.992Z,58.80
2019-04-28T15:31:18.882Z,58.40
2019-04-28T15:33:47.873Z,58.30
2019-04-28T15:36:16.868Z,58.90
2019-04-28T15:38:45.758Z,58.70
2019-04-28T15:41:21.330Z,58.20
2019-04-28T15:43:45.178Z,57.40
2019-04-28T15:46:14.043Z,56.80
2019-04-28T15:48:43.063Z,57.00
2019-04-28T15:51:12.032Z,57.30
2019-04-28T15:53:40.923Z,57.00
2019-04-28T15:56:12.706Z,56.50
2019-04-28T15:58:41.598Z,56.30
2019-04-28T16:01:10.899Z,56.40
2019-04-28T16:03:39.788Z,56.30
2019-04-28T16:06:08.782Z,56.30
2019-04-28T16:08:37.674Z,56.70
2019-04-28T16:11:06.564Z,57.00
2019-04-28T16:13:35.466Z,57.00
2019-04-28T16:16:04.450Z,57.10
2019-04-28T16:18:33.444Z,56.70
2019-04-28T16:21:20.534Z,56.80
2019-04-28T16:23:49.555Z,57.20
2019-04-28T16:26:18.753Z,57.80
2019-04-28T16:28:47.647Z,58.10
2019-04-28T16:31:16.641Z,59.10
2019-04-28T16:33:49.732Z,59.70
2019-04-28T16:36:18.576Z,60.00
2019-04-28T16:38:47.513Z,60.00
2019-04-28T16:41:20.549Z,60.50
2019-04-28T16:47:25.808Z,61.50
2019-04-28T16:49:55.068Z,62.00
2019-04-28T16:52:25.184Z,62.60
2019-04-28T16:55:12.505Z,63.00
2019-04-28T16:57:52.150Z,63.60
2019-04-28T17:00:34.775Z,64.00
2019-04-28T17:03:03.864Z,64.60
2019-04-28T17:05:32.753Z,65.40
2019-04-28T17:08:01.642Z,66.20
2019-04-28T17:10:30.737Z,66.90
2019-04-28T17:12:59.629Z,67.70
2019-04-28T17:15:30.311Z,68.30
2019-04-28T17:17:59.049Z,69.00
2019-04-28T17:20:28.454Z,69.20
2019-04-28T17:22:57.344Z,69.50
2019-04-28T17:25:26.337Z,69.30
2019-04-28T17:27:55.231Z,69.60
2019-04-28T17:30:24.632Z,70.20
2019-04-28T17:32:53.524Z,70.80
2019-04-28T17:35:22.495Z,71.60
2019-04-28T17:37:51.511Z,72.30
2019-04-28T17:40:20.812Z,73.10
2019-04-28T17:42:49.703Z,73.60
2019-04-28T17:45:20.011Z,74.00
2019-04-28T17:47:50.046Z,74.50
2019-04-28T17:50:20.271Z,75.10
2019-04-28T17:52:49.159Z,75.40
2019-04-28T17:55:18.049Z,75.60
2019-04-28T17:58:03.921Z,76.30
2019-04-28T18:00:50.546Z,76.70
2019-04-28T18:03:23.517Z,77.30
2019-04-28T18:05:57.237Z,77.90
2019-04-28T18:08:26.231Z,78.30
2019-04-28T18:10:55.429Z,78.70
2019-04-28T18:13:24.321Z,79.40
2019-04-28T18:15:57.718Z,80.00
2019-04-28T18:18:28.219Z,80.40
2019-04-28T18:20:57.141Z,81.80
2019-04-28T18:23:26.029Z,81.80
2019-04-28T18:25:54.921Z,82.10
2019-04-28T18:28:23.812Z,82.50
2019-04-28T18:34:34.810Z,83.20
2019-04-28T18:37:21.623Z,83.40
2019-04-28T18:40:07.410Z,84.00
2019-04-28T18:42:40.806Z,84.30
2019-04-28T18:45:10.495Z,84.60
2019-04-28T18:47:39.408Z,85.00
2019-04-28T18:50:08.300Z,85.40
2019-04-28T18:52:37.192Z,85.50
2019-04-28T18:55:07.107Z,85.70
2019-04-28T18:57:36.164Z,86.20
2019-04-28T19:00:08.110Z,86.40
2019-04-28T19:02:41.869Z,86.80
2019-04-28T19:05:11.156Z,87.10
2019-04-28T19:07:50.509Z,87.50
2019-04-28T19:10:40.880Z,87.80
2019-04-28T19:13:11.431Z,88.10
2019-04-28T19:15:54.248Z,88.30
2019-04-28T19:18:30.513Z,88.30
2019-04-28T19:20:59.404Z,88.60
2019-04-28T19:23:28.500Z,88.80
2019-04-28T19:25:57.494Z,89.00
2019-04-28T19:28:26.603Z,89.30
2019-04-28T19:30:55.591Z,89.60
2019-04-28T19:33:24.987Z,89.70
2019-04-28T19:35:54.903Z,90.00
2019-04-28T19:38:23.794Z,90.10
2019-04-28T19:40:52.787Z,90.10
2019-04-28T19:43:21.782Z,90.20
2019-04-28T19:45:52.538Z,90.40
2019-04-28T19:48:21.510Z,90.40
2019-04-28T19:50:50.399Z,90.40
2019-04-28T19:53:19.291Z,90.50
2019-04-28T19:56:07.952Z,90.50
2019-04-28T19:58:38.872Z,90.50
2019-04-28T20:01:12.897Z,90.60
2019-04-28T20:03:41.890Z,90.80
2019-04-28T20:06:12.844Z,90.90
2019-04-28T20:08:44.865Z,91.00
2019-04-28T20:11:17.654Z,91.20
2019-04-28T20:13:54.054Z,91.20
2019-04-28T20:16:24.469Z,91.30
2019-04-28T20:18:54.256Z,91.40
2019-04-28T20:21:27.213Z,91.50
2019-04-28T20:23:57.963Z,91.70
2019-04-28T20:26:28.963Z,91.80
2019-04-28T20:29:01.797Z,91.90
2019-04-28T20:31:31.132Z,92.00
2019-04-28T20:34:03.608Z,92.10
2019-04-28T20:36:38.233Z,92.10
2019-04-28T20:39:11.033Z,92.20
2019-04-28T20:41:55.135Z,92.30
2019-04-28T20:44:27.945Z,92.30
2019-04-28T20:47:49.369Z,92.30
2019-04-28T20:50:20.157Z,92.40
2019-04-28T20:52:49.518Z,92.50
2019-04-28T20:55:18.953Z,92.50
2019-04-28T20:58:00.468Z,92.60
2019-04-28T21:00:30.599Z,92.60
2019-04-28T21:02:59.852Z,92.70
2019-04-28T21:05:29.477Z,93.10
2019-04-28T21:07:59.033Z,92.70
2019-04-28T21:10:37.728Z,92.80
2019-04-28T21:12:59.312Z,93.00
2019-04-28T21:15:28.604Z,93.10
2019-04-28T21:17:57.568Z,93.10
2019-04-28T21:20:27.925Z,93.10
2019-04-28T21:22:57.321Z,93.10
2019-04-28T21:25:26.754Z,93.10
2019-04-28T21:27:55.692Z,93.10
2019-04-28T21:30:26.425Z,93.20
2019-04-28T21:33:31.773Z,93.20
2019-04-28T21:36:00.664Z,93.60
2019-04-28T21:38:29.557Z,93.20
2019-04-28T21:40:58.550Z,93.40
2019-04-28T21:43:31.536Z,93.40
2019-04-28T21:46:20.088Z,93.50
2019-04-28T21:48:51.436Z,93.50
2019-04-28T21:51:20.328Z,93.50
2019-04-28T21:53:50.911Z,93.60
2019-04-28T21:56:19.851Z,93.60
2019-04-28T21:58:48.718Z,94.10
2019-04-28T22:01:20.503Z,93.80
2019-04-28T22:03:49.392Z,93.80
2019-04-28T22:06:18.283Z,93.80
2019-04-28T22:08:47.174Z,93.80
2019-04-28T22:11:16.373Z,93.80
2019-04-28T22:13:45.264Z,93.80
2019-04-28T22:16:14.156Z,93.80
2019-04-28T22:18:43.018Z,93.80
2019-04-28T22:21:11.937Z,93.80
2019-04-28T22:23:42.447Z,93.80
2019-04-28T22:26:12.997Z,93.80
2019-04-28T22:28:41.887Z,93.80
2019-04-28T22:31:10.758Z,93.70
2019-04-28T22:33:39.670Z,93.80
2019-04-28T22:36:08.561Z,93.80
2019-04-28T22:38:37.453Z,93.80
2019-04-28T22:41:06.651Z,93.80
2019-04-28T22:43:35.515Z,93.80
2019-04-28T22:46:04.407Z,93.80
2019-04-28T22:48:33.325Z,93.80
2019-04-28T22:51:02.215Z,93.80
2019-04-28T22:53:32.746Z,93.80
2019-04-28T22:56:06.243Z,93.80
2019-04-28T22:58:36.755Z,93.80
2019-04-28T23:01:13.214Z,93.80
2019-04-28T23:03:46.743Z,93.80
2019-04-28T23:06:15.735Z,93.80
2019-04-28T23:08:44.627Z,93.80
2019-04-28T23:11:13.517Z,93.80
2019-04-28T23:13:42.409Z,93.80
2019-04-28T23:16:11.299Z,93.80
2019-04-28T23:18:40.183Z,93.80
2019-04-28T23:21:10.904Z,93.70
2019-04-28T23:23:40.792Z,93.70
2019-04-28T23:26:09.731Z,93.70
2019-04-28T23:28:38.623Z,93.70
2019-04-28T23:31:07.514Z,93.60
2019-04-28T23:33:36.405Z,93.50
2019-04-28T23:36:05.269Z,93.50
2019-04-28T23:38:34.188Z,93.50
2019-04-28T23:41:23.251Z,93.50
2019-04-28T23:43:52.142Z,93.50
2019-04-28T23:46:22.545Z,93.50
2019-04-28T23:48:52.997Z,93.40
2019-04-28T23:51:26.189Z,93.50
2019-04-28T23:54:05.525Z,93.40
2019-04-28T23:56:34.416Z,93.40
2019-04-28T23:59:03.307Z,93.40
